Time;durP1;ratioP1;P1;durP2;ratioP2;P2;SDS_P1;SDS_P2;PMS_P1;PMS_P2;Temp;Humidity;BMP_temperature;BMP_pressure;BME280_temperature;BME280_humidity;BME280_pressure;Samples;Min_cycle;Max_cycle;Signal;HPM_P1;HPM_P2
2022/04/06 00:00:00;;;;;;;44.30;22.00;;;8.30;99.90;;;;;;5225855;28;20432;-50
2022/04/06 00:02:31;;;;;;;56.17;24.57;;;8.30;99.90;;;;;;5219340;28;20638;-48
2022/04/06 00:05:01;;;;;;;26.50;18.77;;;8.30;99.90;;;;;;5225997;28;20195;-48
2022/04/06 00:07:32;;;;;;;44.40;21.90;;;8.30;99.90;;;;;;5225001;28;20867;-49
2022/04/06 00:10:07;;;;;;;28.47;18.03;;;8.30;99.90;;;;;;5227902;28;20167;-50
2022/04/06 00:12:39;;;;;;;74.57;29.13;;;8.30;99.90;;;;;;5228697;28;20198;-48
2022/04/06 00:15:11;;;;;;;50.67;21.93;;;8.30;99.90;;;;;;5245522;28;20479;-51
2022/04/06 00:17:43;;;;;;;34.47;19.00;;;8.30;99.90;;;;;;5215978;28;20803;-49
2022/04/06 00:20:14;;;;;;;45.67;23.33;;;8.30;99.90;;;;;;5218316;28;20525;-50
2022/04/06 00:22:45;;;;;;;41.90;23.37;;;8.30;99.90;;;;;;5230618;28;20429;-49
2022/04/06 00:25:16;;;;;;;41.10;22.50;;;8.40;99.90;;;;;;5226928;28;20802;-48
2022/04/06 00:27:46;;;;;;;42.40;23.90;;;8.40;99.90;;;;;;5232650;28;20308;-49
2022/04/06 00:30:17;;;;;;;48.50;24.17;;;8.40;99.90;;;;;;5223978;28;20171;-50
2022/04/06 00:32:47;;;;;;;46.53;24.83;;;8.40;99.90;;;;;;5222536;28;20576;-47
2022/04/06 00:35:28;;;;;;;69.87;30.00;;;8.50;99.90;;;;;;5228659;28;20186;-49
2022/04/06 00:38:00;;;;;;;31.87;20.77;;;8.40;99.90;;;;;;5240937;28;20225;-49
2022/04/06 00:40:33;;;;;;;59.20;26.13;;;8.60;99.90;;;;;;5224282;28;20449;-48
2022/04/06 00:43:12;;;;;;;32.90;18.33;;;8.50;99.90;;;;;;5225399;28;20452;-48
2022/04/06 00:45:43;;;;;;;26.43;16.57;;;8.50;99.90;;;;;;5225291;28;20540;-48
2022/04/06 00:48:14;;;;;;;22.23;14.63;;;8.50;99.90;;;;;;5227710;28;20404;-50
2022/04/06 00:50:45;;;;;;;28.50;15.93;;;8.60;99.90;;;;;;5234894;28;20434;-48
2022/04/06 00:53:15;;;;;;;31.30;16.63;;;8.60;99.90;;;;;;5217143;28;20180;-48
2022/04/06 00:55:46;;;;;;;37.40;19.47;;;8.60;99.90;;;;;;5228678;28;20195;-48
2022/04/06 00:58:17;;;;;;;36.10;18.03;;;8.60;99.90;;;;;;5225797;28;20176;-50
2022/04/06 01:00:48;;;;;;;27.53;16.43;;;8.60;99.90;;;;;;5229346;28;20664;-48
2022/04/06 01:03:18;;;;;;;53.57;23.90;;;8.60;99.90;;;;;;5223711;28;20425;-48
2022/04/06 01:05:49;;;;;;;40.83;20.43;;;8.60;99.90;;;;;;5227793;28;20191;-48
2022/04/06 01:08:20;;;;;;;43.37;21.40;;;8.60;99.90;;;;;;5230180;28;20182;-47
2022/04/06 01:10:50;;;;;;;42.10;20.27;;;8.60;99.90;;;;;;5228201;28;20593;-49
2022/04/06 01:13:21;;;;;;;53.30;24.20;;;8.60;99.90;;;;;;5223795;28;20176;-48
2022/04/06 01:15:51;;;;;;;31.20;19.10;;;8.60;99.90;;;;;;5222259;28;20250;-50
2022/04/06 01:18:22;;;;;;;34.17;17.80;;;8.60;99.90;;;;;;5221794;28;20258;-49
2022/04/06 01:20:52;;;;;;;43.00;20.27;;;8.60;99.90;;;;;;5225879;28;20202;-48
2022/04/06 01:23:23;;;;;;;47.47;24.10;;;8.60;99.90;;;;;;5226162;28;20548;-48
2022/04/06 01:25:54;;;;;;;45.40;21.83;;;8.60;99.90;;;;;;5223500;28;20199;-48
2022/04/06 01:28:24;;;;;;;29.23;19.10;;;8.60;99.90;;;;;;5227015;28;20741;-48
2022/04/06 01:30:55;;;;;;;30.93;18.37;;;8.70;99.90;;;;;;5236556;28;20207;-48
2022/04/06 01:33:26;;;;;;;28.30;16.83;;;8.60;99.90;;;;;;5241949;28;20183;-48
2022/04/06 01:35:57;;;;;;;46.60;22.90;;;8.60;99.90;;;;;;5226943;28;20487;-47
2022/04/06 01:38:28;;;;;;;27.60;18.30;;;8.50;99.90;;;;;;5220694;28;20214;-48
2022/04/06 01:40:58;;;;;;;57.00;24.07;;;8.50;99.90;;;;;;5222687;28;20844;-48
2022/04/06 01:43:29;;;;;;;55.80;24.07;;;8.60;99.90;;;;;;5223832;28;20227;-48
2022/04/06 01:46:01;;;;;;;47.30;21.77;;;8.60;99.90;;;;;;5228169;28;20195;-49
2022/04/06 01:48:32;;;;;;;47.40;21.77;;;8.60;99.90;;;;;;5222709;28;20214;-49
2022/04/06 01:53:51;;;;;;;32.03;19.50;;;8.60;99.90;;;;;;5225037;28;20190;-49
2022/04/06 01:56:22;;;;;;;51.43;22.87;;;8.60;99.90;;;;;;5227475;28;20449;-49
2022/04/06 01:58:52;;;;;;;73.20;27.97;;;8.60;99.90;;;;;;5230368;28;20187;-48
2022/04/06 02:01:23;;;;;;;36.60;20.53;;;8.60;99.90;;;;;;5225491;28;20616;-49
2022/04/06 02:03:54;;;;;;;64.87;25.80;;;8.60;99.90;;;;;;5241408;28;20202;-49
2022/04/06 02:06:27;;;;;;;43.07;23.53;;;8.60;99.90;;;;;;5219781;28;20233;-49
2022/04/06 02:08:57;;;;;;;69.30;30.33;;;8.70;99.90;;;;;;5221350;28;20550;-48
2022/04/06 02:11:28;;;;;;;62.03;27.13;;;8.70;99.90;;;;;;5216275;28;20480;-47
2022/04/06 02:13:59;;;;;;;86.13;30.10;;;8.60;99.90;;;;;;5225466;28;20182;-48
2022/04/06 02:16:29;;;;;;;44.90;23.23;;;8.60;99.90;;;;;;5217845;28;20214;-44
2022/04/06 02:19:00;;;;;;;44.50;24.30;;;8.60;99.90;;;;;;5227179;28;20198;-46
2022/04/06 02:21:31;;;;;;;29.87;18.77;;;8.60;99.90;;;;;;5226547;28;20199;-46
2022/04/06 02:24:02;;;;;;;32.80;19.70;;;8.60;99.90;;;;;;5224102;28;20751;-45
2022/04/06 02:26:33;;;;;;;53.17;24.20;;;8.60;99.90;;;;;;5219358;28;20450;-46
2022/04/06 02:29:03;;;;;;;39.87;22.77;;;8.60;99.90;;;;;;5229860;28;20457;-50
2022/04/06 02:31:34;;;;;;;31.27;19.50;;;8.60;99.90;;;;;;5224363;28;20248;-45
2022/04/06 02:34:04;;;;;;;40.97;22.80;;;8.60;99.90;;;;;;5227943;28;20232;-47
2022/04/06 02:36:35;;;;;;;47.33;23.40;;;8.70;99.90;;;;;;5219176;28;20213;-46
2022/04/06 02:39:06;;;;;;;65.47;27.13;;;8.60;99.90;;;;;;5214454;28;20659;-46
2022/04/06 02:41:36;;;;;;;39.10;22.00;;;8.60;99.90;;;;;;5227739;28;20728;-45
2022/04/06 02:44:07;;;;;;;31.70;20.10;;;8.60;99.90;;;;;;5224896;28;20207;-46
2022/04/06 02:46:37;;;;;;;28.17;19.30;;;8.70;99.90;;;;;;5221990;28;20194;-46
2022/04/06 02:49:08;;;;;;;41.93;20.57;;;8.60;99.90;;;;;;5219744;28;20178;-46
2022/04/06 02:51:38;;;;;;;28.50;19.57;;;8.60;99.90;;;;;;5222301;28;20197;-46
2022/04/06 02:54:09;;;;;;;26.80;18.67;;;8.60;99.90;;;;;;5214172;28;20198;-46
2022/04/06 02:56:40;;;;;;;60.37;25.47;;;8.70;99.90;;;;;;5208283;28;20284;-46
2022/04/06 02:59:10;;;;;;;43.13;24.27;;;8.60;99.90;;;;;;5223295;28;20658;-47
2022/04/06 03:01:42;;;;;;;46.97;21.07;;;8.60;99.90;;;;;;5219970;28;20776;-48
2022/04/06 03:04:12;;;;;;;53.73;24.80;;;8.50;99.90;;;;;;5222090;28;20682;-45
2022/04/06 03:06:43;;;;;;;73.03;30.17;;;8.60;99.90;;;;;;5234205;28;20457;-46
2022/04/06 03:09:13;;;;;;;38.40;22.47;;;8.60;99.90;;;;;;5226038;28;20654;-47
2022/04/06 03:11:44;;;;;;;39.90;22.70;;;8.50;99.90;;;;;;5217116;28;20253;-45
2022/04/06 03:14:14;;;;;;;31.17;20.00;;;8.60;99.90;;;;;;5231319;28;20187;-46
2022/04/06 03:16:45;;;;;;;59.40;25.63;;;8.50;99.90;;;;;;5225726;28;20273;-47
2022/04/06 03:19:15;;;;;;;61.00;27.00;;;8.50;99.90;;;;;;5227959;28;20182;-47
2022/04/06 03:21:46;;;;;;;66.30;27.47;;;8.50;99.90;;;;;;5229245;28;20198;-45
2022/04/06 03:24:16;;;;;;;41.93;22.23;;;8.50;99.90;;;;;;5230356;28;20659;-47
2022/04/06 03:26:47;;;;;;;41.20;22.70;;;8.40;99.90;;;;;;5221348;28;20191;-47
2022/04/06 03:29:17;;;;;;;67.47;24.27;;;8.50;99.90;;;;;;5225299;28;20248;-46
2022/04/06 03:31:48;;;;;;;42.50;21.83;;;8.40;99.90;;;;;;5228386;28;20183;-47
2022/04/06 03:34:19;;;;;;;39.23;21.30;;;8.40;99.90;;;;;;5226567;28;20194;-46
2022/04/06 03:36:50;;;;;;;45.87;23.13;;;8.40;99.90;;;;;;5229261;28;20259;-46
2022/04/06 03:39:21;;;;;;;39.23;20.77;;;8.50;99.90;;;;;;5231068;28;20445;-47
2022/04/06 03:41:51;;;;;;;39.77;21.63;;;8.40;99.90;;;;;;5227756;28;20296;-46
2022/04/06 03:44:22;;;;;;;66.90;24.27;;;8.40;99.90;;;;;;5226284;28;20215;-47
2022/04/06 03:46:53;;;;;;;43.13;23.17;;;8.50;99.90;;;;;;5228021;28;20206;-47
2022/04/06 03:49:24;;;;;;;29.07;18.00;;;8.40;99.90;;;;;;5233561;28;20181;-46
2022/04/06 03:51:54;;;;;;;56.17;22.90;;;8.50;99.90;;;;;;5234679;28;20797;-47
2022/04/06 03:54:25;;;;;;;32.20;17.10;;;8.50;99.90;;;;;;5234021;28;20175;-46
2022/04/06 03:56:55;;;;;;;40.93;20.40;;;8.50;99.90;;;;;;5229797;28;20218;-48
2022/04/06 03:59:27;;;;;;;43.50;21.60;;;8.40;99.90;;;;;;5225089;28;20187;-47
2022/04/06 04:01:57;;;;;;;35.73;19.33;;;8.40;99.90;;;;;;5243551;28;20182;-49
2022/04/06 04:04:28;;;;;;;37.20;18.43;;;8.40;99.90;;;;;;5232089;28;20464;-47
2022/04/06 04:06:58;;;;;;;28.40;17.10;;;8.40;99.90;;;;;;5234373;28;20232;-46
2022/04/06 04:09:29;;;;;;;43.60;18.60;;;8.40;99.90;;;;;;5234086;28;20202;-45
2022/04/06 04:12:00;;;;;;;30.00;17.03;;;8.40;99.90;;;;;;5234378;28;20179;-46
2022/04/06 04:14:33;;;;;;;47.37;19.17;;;8.40;99.90;;;;;;5230341;28;20436;-47
2022/04/06 04:17:05;;;;;;;40.00;18.50;;;8.40;99.90;;;;;;5229007;28;20472;-47
2022/04/06 04:19:35;;;;;;;51.20;19.97;;;8.40;99.90;;;;;;5229368;28;20467;-46
2022/04/06 04:22:06;;;;;;;36.97;17.70;;;8.30;99.90;;;;;;5232266;28;20459;-47
2022/04/06 04:24:36;;;;;;;22.13;14.87;;;8.40;99.90;;;;;;5224312;28;20218;-47
2022/04/06 04:27:07;;;;;;;33.43;18.17;;;8.30;99.90;;;;;;5228564;28;20187;-47
2022/04/06 04:29:38;;;;;;;17.83;12.97;;;8.40;99.90;;;;;;5229011;28;20183;-47
2022/04/06 04:32:10;;;;;;;44.53;20.60;;;8.40;99.90;;;;;;5222714;28;20184;-47
2022/04/06 04:34:41;;;;;;;32.00;17.17;;;8.40;99.90;;;;;;5225096;28;20183;-46
2022/04/06 04:37:11;;;;;;;53.10;21.50;;;8.30;99.90;;;;;;5246736;28;20441;-46
2022/04/06 04:39:42;;;;;;;49.53;21.60;;;8.30;99.90;;;;;;5224098;28;20197;-47
2022/04/06 04:42:12;;;;;;;38.43;18.40;;;8.30;99.90;;;;;;5229253;28;20210;-47
2022/04/06 04:44:43;;;;;;;77.57;23.50;;;8.30;99.90;;;;;;5225752;28;20218;-46
2022/04/06 04:47:13;;;;;;;24.13;15.20;;;8.30;99.90;;;;;;5223454;28;20737;-45
2022/04/06 04:49:44;;;;;;;34.03;18.10;;;8.40;99.90;;;;;;5223364;28;20175;-47
2022/04/06 04:52:15;;;;;;;57.20;21.90;;;8.30;99.90;;;;;;5229340;28;20544;-46
2022/04/06 04:54:45;;;;;;;55.17;22.43;;;8.30;99.90;;;;;;5229486;28;20598;-47
2022/04/06 04:57:15;;;;;;;43.73;20.47;;;8.30;99.90;;;;;;5229919;28;20682;-46
2022/04/06 04:59:46;;;;;;;30.83;17.43;;;8.30;99.90;;;;;;5220504;28;20187;-46
2022/04/06 05:02:17;;;;;;;65.40;25.77;;;8.30;99.90;;;;;;5202084;28;20241;-48
2022/04/06 05:04:47;;;;;;;65.53;26.17;;;8.30;99.90;;;;;;5233025;28;20294;-45
2022/04/06 05:07:18;;;;;;;57.90;24.20;;;8.30;99.90;;;;;;5227666;28;20230;-45
2022/04/06 05:09:49;;;;;;;72.80;26.13;;;8.30;99.90;;;;;;5241556;28;20206;-46
2022/04/06 05:12:21;;;;;;;35.40;19.90;;;8.30;99.90;;;;;;5231117;28;20201;-46
2022/04/06 05:14:51;;;;;;;53.73;25.00;;;8.30;99.90;;;;;;5227438;28;20457;-46
2022/04/06 05:17:22;;;;;;;32.77;19.17;;;8.30;99.90;;;;;;5227137;28;20462;-47
2022/04/06 05:19:53;;;;;;;58.77;25.40;;;8.40;99.90;;;;;;5226786;28;20187;-47
2022/04/06 05:22:23;;;;;;;70.43;28.10;;;8.40;99.90;;;;;;5207611;28;20187;-46
2022/04/06 05:24:54;;;;;;;25.27;17.30;;;8.40;99.90;;;;;;5227463;28;20875;-45
2022/04/06 05:27:24;;;;;;;52.53;23.97;;;8.50;99.90;;;;;;5227745;28;20214;-50
2022/04/06 05:29:55;;;;;;;46.03;21.70;;;8.40;99.90;;;;;;5225512;28;20681;-47
2022/04/06 05:32:25;;;;;;;34.50;18.37;;;8.40;99.90;;;;;;5234080;28;20599;-46
2022/04/06 05:34:56;;;;;;;57.80;25.00;;;8.40;99.90;;;;;;5217846;28;20180;-46
2022/04/06 05:37:26;;;;;;;43.37;20.30;;;8.30;99.90;;;;;;5221152;28;20244;-50
2022/04/06 05:39:57;;;;;;;71.40;26.00;;;8.40;99.90;;;;;;5226163;28;20236;-48
2022/04/06 05:42:27;;;;;;;45.93;22.53;;;8.40;99.90;;;;;;5226411;28;20599;-46
2022/04/06 05:44:58;;;;;;;39.43;20.50;;;8.50;99.90;;;;;;5219628;28;20206;-45
2022/04/06 05:47:28;;;;;;;44.47;20.07;;;8.60;99.90;;;;;;5231018;28;20210;-46
2022/04/06 05:50:00;;;;;;;57.07;22.40;;;8.60;99.90;;;;;;5211839;28;20321;-46
2022/04/06 05:52:31;;;;;;;56.80;25.97;;;8.60;99.90;;;;;;5219328;28;20179;-51
2022/04/06 05:55:03;;;;;;;50.03;19.90;;;8.60;99.90;;;;;;5224941;28;20528;-47
2022/04/06 05:57:34;;;;;;;29.30;18.30;;;8.60;99.90;;;;;;5217697;28;20214;-48
2022/04/06 06:00:08;;;;;;;27.23;16.23;;;8.70;99.90;;;;;;5218917;28;20445;-46
2022/04/06 06:02:38;;;;;;;34.97;17.93;;;8.70;99.90;;;;;;5218032;28;20194;-46
2022/04/06 06:05:09;;;;;;;29.73;18.43;;;8.70;99.90;;;;;;5217493;28;20470;-48
2022/04/06 06:07:39;;;;;;;41.33;20.70;;;8.70;99.90;;;;;;5242242;28;20179;-47
2022/04/06 06:10:11;;;;;;;43.13;21.37;;;8.70;99.90;;;;;;5228882;28;20635;-47
2022/04/06 06:12:42;;;;;;;30.03;18.00;;;8.80;99.90;;;;;;5227416;28;21256;-46
2022/04/06 06:15:12;;;;;;;51.60;23.00;;;8.80;99.90;;;;;;5224869;28;20469;-46
2022/04/06 06:17:43;;;;;;;39.40;22.20;;;8.80;99.90;;;;;;5218771;28;20195;-48
2022/04/06 06:20:13;;;;;;;30.27;19.57;;;8.80;99.90;;;;;;5225464;28;20217;-48
2022/04/06 06:22:44;;;;;;;30.93;16.77;;;8.80;99.90;;;;;;5217202;28;20175;-49
2022/04/06 06:25:14;;;;;;;34.03;19.93;;;8.90;99.90;;;;;;5224492;28;20211;-47
2022/04/06 06:27:46;;;;;;;40.03;20.77;;;8.90;99.90;;;;;;5211026;28;20189;-46
2022/04/06 06:30:16;;;;;;;43.20;21.03;;;8.90;99.90;;;;;;5219606;28;20175;-48
2022/04/06 06:32:47;;;;;;;50.83;24.33;;;8.80;99.90;;;;;;5220661;28;20444;-47
2022/04/06 06:35:19;;;;;;;53.00;26.20;;;8.80;99.90;;;;;;5221160;28;20198;-47
2022/04/06 06:37:52;;;;;;;45.93;23.27;;;8.90;99.90;;;;;;5223355;28;20179;-46
2022/04/06 06:40:25;;;;;;;48.53;25.10;;;8.90;99.90;;;;;;5223567;28;20430;-47
2022/04/06 06:42:56;;;;;;;47.00;24.57;;;9.10;99.90;;;;;;5224470;28;20468;-47
2022/04/06 06:45:26;;;;;;;50.43;25.07;;;9.20;99.90;;;;;;5233160;28;20898;-48
2022/04/06 06:47:57;;;;;;;48.30;26.20;;;9.30;99.90;;;;;;5227815;28;20628;-47
2022/04/06 06:50:27;;;;;;;42.97;23.37;;;9.30;99.90;;;;;;5224574;28;20611;-46
2022/04/06 06:52:58;;;;;;;56.23;23.43;;;9.40;99.90;;;;;;5241555;28;20171;-49
2022/04/06 06:55:28;;;;;;;39.07;22.70;;;9.50;99.90;;;;;;5209821;28;20208;-48
2022/04/06 06:57:59;;;;;;;58.63;22.87;;;9.50;99.90;;;;;;5224277;28;20175;-47
2022/04/06 07:00:30;;;;;;;40.33;22.17;;;9.50;99.90;;;;;;5222452;28;20549;-48
2022/04/06 07:03:00;;;;;;;41.73;22.27;;;9.60;99.90;;;;;;5223756;28;20702;-48
2022/04/06 07:05:31;;;;;;;34.97;21.10;;;9.70;99.90;;;;;;5221503;28;20544;-50
2022/04/06 07:08:02;;;;;;;34.80;20.33;;;9.70;99.90;;;;;;5217071;28;20301;-47
2022/04/06 07:10:33;;;;;;;26.80;18.40;;;9.80;99.90;;;;;;5220468;28;20209;-47
2022/04/06 07:13:03;;;;;;;37.27;20.70;;;9.90;99.90;;;;;;5227909;28;20194;-48
2022/04/06 07:15:34;;;;;;;38.80;19.63;;;10.00;99.90;;;;;;5225215;28;20667;-48
2022/04/06 07:18:06;;;;;;;36.47;17.70;;;10.00;99.90;;;;;;5214024;28;20291;-48
2022/04/06 07:20:36;;;;;;;30.77;18.40;;;10.20;99.90;;;;;;5223692;28;20182;-49
2022/04/06 07:23:07;;;;;;;30.13;16.10;;;10.30;99.90;;;;;;5216279;28;20972;-46
2022/04/06 07:25:39;;;;;;;22.63;15.63;;;10.50;99.90;;;;;;5235258;28;20207;-47
2022/04/06 07:28:10;;;;;;;35.10;16.23;;;10.60;99.90;;;;;;5229613;28;20527;-49
2022/04/06 07:30:41;;;;;;;24.07;15.93;;;10.70;99.90;;;;;;5220434;28;20441;-47
2022/04/06 07:33:13;;;;;;;27.63;16.47;;;10.70;99.90;;;;;;5219137;28;20175;-46
2022/04/06 07:35:44;;;;;;;27.80;16.20;;;11.00;99.90;;;;;;5213548;28;20651;-50
2022/04/06 07:38:15;;;;;;;26.47;14.13;;;11.00;99.90;;;;;;5213868;28;20793;-48
2022/04/06 07:40:46;;;;;;;38.47;15.43;;;11.30;99.90;;;;;;5221410;28;20440;-47
2022/04/06 07:43:17;;;;;;;23.80;14.57;;;11.60;99.90;;;;;;5216384;28;20409;-47
2022/04/06 07:45:47;;;;;;;23.27;15.20;;;12.10;99.90;;;;;;5216577;28;20454;-48
2022/04/06 07:48:18;;;;;;;17.97;12.27;;;12.50;99.90;;;;;;5217234;28;20175;-51
2022/04/06 07:50:48;;;;;;;16.53;12.20;;;12.50;99.90;;;;;;5217973;28;20179;-49
2022/04/06 07:53:19;;;;;;;18.60;12.57;;;12.70;99.90;;;;;;5220750;28;20178;-48
2022/04/06 07:55:50;;;;;;;25.20;12.57;;;13.00;99.90;;;;;;5242796;28;20207;-47
2022/04/06 07:58:20;;;;;;;18.20;10.30;;;14.00;99.90;;;;;;5222510;28;20636;-50
2022/04/06 08:00:51;;;;;;;17.57;11.10;;;15.00;99.90;;;;;;5222434;28;20490;-48
2022/04/06 08:03:22;;;;;;;12.60;9.97;;;15.30;99.90;;;;;;5219172;28;20190;-48
2022/04/06 08:05:52;;;;;;;12.80;10.00;;;15.00;99.90;;;;;;5219908;28;20209;-50
2022/04/06 08:08:23;;;;;;;19.53;10.40;;;15.00;99.90;;;;;;5212634;28;20207;-49
2022/04/06 08:10:53;;;;;;;13.77;9.83;;;15.00;99.90;;;;;;5220804;28;20644;-48
2022/04/06 08:13:24;;;;;;;21.33;9.80;;;15.40;99.90;;;;;;5220979;28;20233;-49
2022/04/06 08:15:55;;;;;;;14.90;9.87;;;15.90;99.90;;;;;;5220208;28;20246;-46
2022/04/06 08:18:26;;;;;;;11.73;8.10;;;16.00;99.90;;;;;;5214409;28;20221;-47
2022/04/06 08:20:57;;;;;;;14.30;8.80;;;16.00;99.90;;;;;;5200834;28;20193;-47
2022/04/06 08:23:28;;;;;;;19.40;8.10;;;15.80;99.90;;;;;;5238536;28;20452;-48
2022/04/06 08:25:58;;;;;;;12.07;8.47;;;15.70;99.90;;;;;;5223633;28;20441;-49
2022/04/06 08:28:29;;;;;;;16.17;8.67;;;15.90;99.90;;;;;;5236404;28;20631;-47
2022/04/06 08:31:00;;;;;;;20.73;8.50;;;16.00;99.90;;;;;;5227464;28;20178;-47
2022/04/06 08:33:30;;;;;;;11.97;7.90;;;16.00;97.60;;;;;;5224042;28;20191;-47
2022/04/06 08:36:04;;;;;;;12.57;6.90;;;15.50;98.20;;;;;;5224502;28;20283;-47
2022/04/06 08:38:34;;;;;;;13.67;7.80;;;15.10;99.90;;;;;;5224288;28;20643;-48
2022/04/06 08:41:08;;;;;;;15.37;9.47;;;14.80;99.90;;;;;;5229220;28;20441;-48
2022/04/06 08:43:39;;;;;;;13.93;7.80;;;14.50;99.90;;;;;;5218613;28;20662;-50
2022/04/06 08:46:14;;;;;;;9.77;6.83;;;14.00;99.90;;;;;;5218594;28;20461;-48
2022/04/06 08:48:48;;;;;;;14.23;8.10;;;13.70;99.90;;;;;;5230157;28;20178;-47
2022/04/06 08:51:20;;;;;;;11.73;8.63;;;13.30;99.90;;;;;;5208646;28;20422;-47
2022/04/06 08:53:50;;;;;;;13.13;8.33;;;13.10;99.90;;;;;;5226716;28;20432;-47
2022/04/06 08:56:23;;;;;;;14.90;7.70;;;12.80;99.90;;;;;;5225992;28;20449;-46
2022/04/06 08:58:54;;;;;;;12.10;8.13;;;12.60;99.90;;;;;;5217490;28;20184;-47
2022/04/06 09:01:25;;;;;;;9.30;7.00;;;12.40;99.90;;;;;;5217929;28;20445;-48
2022/04/06 09:03:56;;;;;;;13.77;7.47;;;12.40;99.90;;;;;;5219022;28;20224;-46
2022/04/06 09:06:31;;;;;;;14.53;8.07;;;12.60;99.90;;;;;;5225743;28;20636;-47
2022/04/06 09:09:01;;;;;;;13.30;6.80;;;12.60;99.90;;;;;;5220011;28;22090;-47
2022/04/06 09:11:41;;;;;;;16.10;7.20;;;12.80;99.90;;;;;;5226983;28;20449;-48
2022/04/06 09:14:12;;;;;;;11.20;6.40;;;13.10;99.90;;;;;;5218386;28;20333;-49
2022/04/06 09:16:42;;;;;;;19.77;6.70;;;13.30;99.90;;;;;;5214475;28;20552;-48
2022/04/06 09:19:14;;;;;;;8.23;6.60;;;13.70;99.90;;;;;;5225103;28;20440;-49
2022/04/06 09:21:48;;;;;;;6.83;5.43;;;13.80;99.90;;;;;;5222799;28;20190;-48
2022/04/06 09:24:21;;;;;;;14.43;7.07;;;13.90;99.90;;;;;;5226004;28;20539;-48
2022/04/06 09:27:01;;;;;;;12.30;6.60;;;14.10;99.90;;;;;;5222877;28;20563;-50
2022/04/06 09:29:34;;;;;;;14.00;6.90;;;14.00;99.90;;;;;;5219741;28;20425;-49
2022/04/06 09:32:07;;;;;;;15.37;7.93;;;14.10;99.90;;;;;;5232970;28;20809;-49
2022/04/06 09:34:38;;;;;;;14.53;6.87;;;14.20;99.90;;;;;;5218517;28;20445;-49
2022/04/06 09:37:28;;;;;;;10.83;6.80;;;14.30;99.90;;;;;;5222131;28;20766;-49
2022/04/06 09:40:08;;;;;;;11.03;6.63;;;14.50;99.90;;;;;;5191233;28;20437;-48
2022/04/06 09:42:49;;;;;;;16.30;6.90;;;14.40;98.60;;;;;;5211898;28;21812;-51
2022/04/06 09:48:17;;;;;;;14.90;7.17;;;14.10;98.20;;;;;;5215753;28;20583;-48
2022/04/06 09:50:57;;;;;;;8.13;6.90;;;14.00;98.10;;;;;;5223802;28;20934;-50
2022/04/06 09:53:29;;;;;;;12.50;7.27;;;13.80;99.10;;;;;;5215261;28;20213;-50
2022/04/06 09:56:00;;;;;;;9.20;6.53;;;13.80;99.00;;;;;;5217857;28;20954;-48
2022/04/06 09:58:31;;;;;;;8.20;5.63;;;13.60;99.10;;;;;;5201828;28;20429;-48
2022/04/06 10:01:01;;;;;;;10.00;6.57;;;13.40;99.70;;;;;;5223627;28;20801;-50
2022/04/06 10:03:39;;;;;;;7.70;6.30;;;13.30;99.90;;;;;;5212590;28;20641;-48
2022/04/06 10:06:10;;;;;;;8.17;6.80;;;13.30;99.90;;;;;;5214178;28;20217;-50
2022/04/06 10:08:43;;;;;;;10.40;6.73;;;13.40;99.90;;;;;;5218160;28;20445;-50
2022/04/06 10:11:16;;;;;;;10.93;6.70;;;13.60;99.80;;;;;;5215137;28;20944;-51
2022/04/06 10:13:47;;;;;;;16.33;7.83;;;13.70;99.70;;;;;;5222764;28;20438;-50
2022/04/06 10:16:20;;;;;;;9.97;6.70;;;14.00;98.50;;;;;;5217816;28;20473;-50
2022/04/06 10:18:52;;;;;;;8.37;5.50;;;14.10;98.40;;;;;;5206293;28;20217;-51
2022/04/06 10:21:54;;;;;;;12.50;8.10;;;14.40;97.70;;;;;;5207194;28;20438;-48
2022/04/06 10:24:59;;;;;;;16.83;7.30;;;14.90;93.90;;;;;;5221712;28;20503;-48
2022/04/06 10:27:36;;;;;;;12.20;6.80;;;14.90;92.80;;;;;;5210488;28;20461;-48
2022/04/06 10:30:17;;;;;;;26.20;7.37;;;14.80;92.10;;;;;;5218287;28;20433;-49
2022/04/06 10:32:49;;;;;;;20.20;8.37;;;14.50;92.70;;;;;;5212077;28;20478;-49
2022/04/06 10:35:31;;;;;;;12.10;8.03;;;14.10;95.10;;;;;;5216964;28;20914;-49
2022/04/06 10:38:05;;;;;;;19.57;8.57;;;13.90;96.60;;;;;;5219988;28;20626;-47
2022/04/06 10:40:45;;;;;;;9.33;6.87;;;13.80;97.50;;;;;;5223923;28;20445;-49
2022/04/06 10:43:34;;;;;;;12.40;8.07;;;13.70;98.10;;;;;;5218266;28;20624;-51
2022/04/06 10:46:08;;;;;;;10.57;7.17;;;13.80;98.90;;;;;;5221657;28;20511;-49
2022/04/06 10:49:13;;;;;;;15.73;7.60;;;13.80;98.50;;;;;;5218837;28;20434;-49
2022/04/06 10:51:46;;;;;;;9.40;6.40;;;13.90;99.40;;;;;;5182557;28;21038;-50
2022/04/06 10:54:17;;;;;;;11.50;7.57;;;14.30;98.30;;;;;;5215672;28;20433;-50
2022/04/06 10:56:52;;;;;;;17.67;7.93;;;14.70;95.30;;;;;;5219662;28;20813;-49
2022/04/06 10:59:29;;;;;;;10.73;6.67;;;15.10;94.30;;;;;;5220442;28;20689;-48
2022/04/06 11:02:26;;;;;;;8.27;6.80;;;15.60;89.40;;;;;;5220726;28;20440;-48
2022/04/06 11:04:57;;;;;;;12.17;6.30;;;15.60;82.00;;;;;;5228714;28;21013;-50
2022/04/06 11:10:24;;;;;;;8.57;5.97;;;15.20;74.10;;;;;;5219554;28;20682;-50
2022/04/06 11:12:58;;;;;;;9.83;6.03;;;14.80;75.80;;;;;;5235192;28;20487;-51
2022/04/06 11:15:41;;;;;;;12.50;6.57;;;14.50;78.50;;;;;;5219251;28;20460;-50
2022/04/06 11:18:43;;;;;;;12.73;6.80;;;14.10;79.60;;;;;;5220244;28;20440;-53
2022/04/06 11:21:14;;;;;;;13.77;7.30;;;13.60;82.30;;;;;;5224104;28;20761;-49
2022/04/06 11:23:45;;;;;;;8.10;5.60;;;13.60;86.90;;;;;;5220220;28;20444;-51
2022/04/06 11:26:15;;;;;;;10.43;5.40;;;13.60;88.90;;;;;;5215927;28;20501;-50
2022/04/06 11:29:01;;;;;;;17.07;7.57;;;13.40;90.10;;;;;;5221387;28;20187;-50
2022/04/06 11:31:31;;;;;;;10.63;6.63;;;13.50;91.00;;;;;;5210837;28;20690;-52
2022/04/06 11:34:02;;;;;;;11.10;6.30;;;13.40;91.90;;;;;;5184698;28;20487;-48
2022/04/06 11:36:37;;;;;;;10.40;6.43;;;13.30;92.90;;;;;;5206129;28;20249;-49
2022/04/06 11:39:07;;;;;;;11.70;6.33;;;13.20;94.30;;;;;;5219060;28;20682;-50
2022/04/06 11:41:42;;;;;;;14.83;8.10;;;13.10;95.50;;;;;;5224981;28;20413;-50
2022/04/06 11:44:21;;;;;;;11.30;7.10;;;13.00;96.20;;;;;;5211980;28;20206;-49
2022/04/06 11:46:52;;;;;;;9.70;6.43;;;12.90;97.40;;;;;;5219701;28;20725;-51
2022/04/06 11:49:29;;;;;;;9.03;5.30;;;12.80;98.70;;;;;;5224532;28;20765;-50
2022/04/06 11:52:00;;;;;;;8.53;6.77;;;12.70;99.90;;;;;;5208719;28;20182;-49
2022/04/06 11:54:31;;;;;;;10.27;5.60;;;12.70;99.90;;;;;;5217808;28;20956;-48
2022/04/06 11:57:02;;;;;;;8.80;6.57;;;12.60;99.90;;;;;;5233858;28;20454;-51
2022/04/06 11:59:32;;;;;;;12.13;7.20;;;12.60;99.90;;;;;;5222556;28;20457;-48
2022/04/06 12:02:03;;;;;;;8.87;7.00;;;12.40;99.90;;;;;;5237882;28;20202;-50
2022/04/06 12:04:34;;;;;;;11.20;7.30;;;12.60;99.90;;;;;;5211579;28;20222;-51
2022/04/06 12:07:04;;;;;;;10.73;6.67;;;12.40;99.90;;;;;;5222166;28;20210;-51
2022/04/06 12:09:35;;;;;;;10.00;7.00;;;12.20;99.90;;;;;;5220804;28;20616;-50
2022/04/06 12:12:06;;;;;;;19.40;6.93;;;12.20;99.90;;;;;;5217798;28;20603;-49
2022/04/06 12:14:37;;;;;;;12.53;6.77;;;12.10;99.90;;;;;;5234457;28;20687;-51
2022/04/06 12:17:08;;;;;;;12.63;7.83;;;12.10;99.90;;;;;;5230494;28;20460;-49
2022/04/06 12:19:38;;;;;;;16.43;6.97;;;12.20;99.90;;;;;;5221190;28;20175;-49
2022/04/06 12:22:11;;;;;;;9.60;5.60;;;12.20;99.90;;;;;;5198089;28;20194;-48
2022/04/06 12:24:43;;;;;;;15.40;7.50;;;12.20;99.90;;;;;;5222874;28;20675;-50
2022/04/06 12:27:28;;;;;;;19.60;6.50;;;12.20;99.90;;;;;;5226536;28;20540;-47
2022/04/06 12:30:09;;;;;;;10.53;7.77;;;12.30;99.90;;;;;;5222663;28;20440;-49
2022/04/06 12:32:52;;;;;;;12.20;6.07;;;12.30;99.90;;;;;;5228313;28;20409;-47
2022/04/06 12:35:25;;;;;;;15.67;6.73;;;12.20;99.90;;;;;;5226283;28;20445;-49
2022/04/06 12:37:56;;;;;;;14.90;6.30;;;12.20;99.90;;;;;;5212524;28;20475;-48
2022/04/06 12:40:27;;;;;;;13.70;6.60;;;12.30;99.90;;;;;;5220440;28;20901;-50
2022/04/06 12:42:57;;;;;;;11.63;7.30;;;12.30;99.90;;;;;;5228793;28;20179;-48
2022/04/06 12:45:45;;;;;;;14.43;6.57;;;12.20;99.90;;;;;;5229296;28;20995;-49
2022/04/06 12:48:19;;;;;;;8.93;5.20;;;12.30;99.90;;;;;;5223479;28;20275;-49
2022/04/06 12:50:49;;;;;;;15.50;7.20;;;12.30;99.90;;;;;;5222608;28;20965;-48
2022/04/06 12:53:20;;;;;;;6.93;5.60;;;12.40;99.90;;;;;;5223524;28;20487;-48
2022/04/06 12:56:11;;;;;;;14.60;6.50;;;12.40;99.90;;;;;;5223796;28;20199;-48
2022/04/06 12:58:42;;;;;;;18.10;7.83;;;12.60;99.90;;;;;;5213710;28;20850;-48
2022/04/06 13:01:14;;;;;;;12.80;5.93;;;12.50;99.90;;;;;;5212777;28;20529;-47
2022/04/06 13:03:56;;;;;;;7.00;5.70;;;12.60;99.90;;;;;;5218763;28;20185;-48
2022/04/06 13:06:27;;;;;;;6.13;5.53;;;12.80;99.20;;;;;;5234562;28;20460;-48
2022/04/06 13:08:57;;;;;;;16.60;8.00;;;13.20;98.20;;;;;;5215307;28;20425;-47
2022/04/06 13:11:28;;;;;;;7.70;5.10;;;13.80;95.50;;;;;;5186186;28;20299;-47